createdAt,value
2018-12-12T00:01:23.340Z,14.73
2018-12-12T00:03:52.347Z,17.30
2018-12-12T00:06:21.809Z,14.53
2018-12-12T00:08:51.000Z,12.97
2018-12-12T00:11:20.050Z,15.47
2018-12-12T00:13:49.166Z,14.87
2018-12-12T00:16:18.041Z,13.27
2018-12-12T00:18:46.646Z,14.43
2018-12-12T00:21:15.249Z,15.23
2018-12-12T00:23:44.328Z,11.90
2018-12-12T00:26:12.965Z,17.20
2018-12-12T00:28:41.583Z,13.67
2018-12-12T00:31:10.182Z,15.80
2018-12-12T00:33:38.805Z,11.57
2018-12-12T00:36:07.432Z,16.07
2018-12-12T00:38:36.212Z,12.87
2018-12-12T00:41:04.874Z,15.30
2018-12-12T00:43:33.455Z,12.40
2018-12-12T00:46:02.090Z,11.00
2018-12-12T00:48:30.742Z,11.57
2018-12-12T00:50:59.347Z,11.03
2018-12-12T00:53:27.962Z,11.77
2018-12-12T00:55:56.673Z,11.43
2018-12-12T00:58:25.269Z,11.10
2018-12-12T01:00:53.906Z,10.90
2018-12-12T01:03:22.517Z,11.43
2018-12-12T01:05:51.189Z,10.50
2018-12-12T01:08:19.823Z,8.83
2018-12-12T01:10:51.031Z,10.73
2018-12-12T01:13:19.701Z,10.80
2018-12-12T01:15:48.326Z,9.47
2018-12-12T01:18:17.007Z,8.33
2018-12-12T01:20:45.650Z,11.53
2018-12-12T01:23:14.259Z,9.20
2018-12-12T01:25:42.862Z,9.37
2018-12-12T01:28:11.530Z,14.13
2018-12-12T01:30:40.141Z,9.77
2018-12-12T01:33:08.786Z,9.70
2018-12-12T01:35:37.394Z,8.30
2018-12-12T01:38:06.007Z,11.30
2018-12-12T01:40:34.646Z,10.57
2018-12-12T01:43:03.326Z,10.77
2018-12-12T01:45:32.465Z,9.03
2018-12-12T01:48:01.709Z,9.00
2018-12-12T01:50:30.385Z,9.63
2018-12-12T01:52:58.988Z,8.90
2018-12-12T01:55:27.574Z,8.77
2018-12-12T01:57:56.266Z,8.00
2018-12-12T02:00:24.901Z,9.73
2018-12-12T02:02:58.201Z,7.47
2018-12-12T02:05:27.148Z,8.63
2018-12-12T02:07:55.833Z,11.13
2018-12-12T02:10:24.563Z,8.93
2018-12-12T02:13:04.344Z,8.07
2018-12-12T02:15:32.945Z,8.93
2018-12-12T02:18:01.537Z,7.93
2018-12-12T02:20:30.174Z,8.80
2018-12-12T02:22:58.809Z,8.50
2018-12-12T02:25:27.432Z,7.53
2018-12-12T02:27:56.127Z,5.67
2018-12-12T02:30:24.816Z,7.20
2018-12-12T02:32:53.417Z,7.97
2018-12-12T02:35:22.034Z,7.70
2018-12-12T02:37:50.685Z,7.60
2018-12-12T02:40:19.293Z,8.43
2018-12-12T02:42:47.927Z,5.70
2018-12-12T02:45:16.598Z,7.77
2018-12-12T02:47:45.197Z,5.90
2018-12-12T02:50:13.833Z,5.90
2018-12-12T02:52:42.463Z,7.43
2018-12-12T02:55:11.186Z,9.70
2018-12-12T02:57:39.792Z,6.80
2018-12-12T03:00:09.840Z,5.87
2018-12-12T03:02:38.978Z,4.93
2018-12-12T03:05:07.593Z,6.53
2018-12-12T03:07:36.252Z,5.87
2018-12-12T03:10:04.967Z,5.53
2018-12-12T03:12:33.648Z,4.97
2018-12-12T03:15:02.330Z,6.70
2018-12-12T03:17:30.942Z,6.70
2018-12-12T03:19:59.609Z,4.87
2018-12-12T03:22:28.243Z,4.97
2018-12-12T03:24:56.879Z,5.57
2018-12-12T03:27:25.558Z,8.83
2018-12-12T03:29:54.254Z,3.63
2018-12-12T03:32:22.928Z,4.47
2018-12-12T03:34:51.533Z,3.67
2018-12-12T03:37:20.147Z,4.10
2018-12-12T03:39:48.755Z,3.83
2018-12-12T03:42:17.347Z,3.27
2018-12-12T03:44:46.024Z,4.10
2018-12-12T03:47:14.627Z,3.90
2018-12-12T03:49:43.582Z,3.40
2018-12-12T03:52:12.180Z,4.27
2018-12-12T03:54:40.815Z,3.00
2018-12-12T03:57:09.453Z,3.90
2018-12-12T03:59:38.054Z,2.93
2018-12-12T04:02:06.709Z,3.17
2018-12-12T04:04:35.369Z,3.73
2018-12-12T04:07:03.992Z,3.40
2018-12-12T04:09:32.654Z,4.13
2018-12-12T04:12:01.306Z,3.97
2018-12-12T04:14:29.897Z,3.37
2018-12-12T04:16:58.530Z,2.90
2018-12-12T04:19:27.209Z,4.10
2018-12-12T04:21:55.936Z,6.57
2018-12-12T04:24:26.612Z,4.37
2018-12-12T04:26:55.250Z,4.13
2018-12-12T04:29:23.866Z,3.20
2018-12-12T04:31:52.498Z,4.40
2018-12-12T04:34:21.143Z,4.93
2018-12-12T04:36:49.730Z,3.07
2018-12-12T04:39:18.385Z,2.80
2018-12-12T04:41:47.046Z,3.00
2018-12-12T04:44:15.640Z,5.60
2018-12-12T04:46:44.274Z,5.30
2018-12-12T04:49:12.920Z,3.57
2018-12-12T04:51:41.540Z,5.17
2018-12-12T04:54:10.158Z,3.63
2018-12-12T04:56:38.783Z,5.07
2018-12-12T04:59:07.546Z,4.20
2018-12-12T05:01:36.415Z,3.73
2018-12-12T05:04:05.046Z,4.10
2018-12-12T05:06:33.994Z,3.33
2018-12-12T05:09:02.937Z,3.40
2018-12-12T05:11:31.846Z,3.20
2018-12-12T05:14:00.803Z,3.67
2018-12-12T05:16:29.417Z,3.37
2018-12-12T05:18:58.049Z,4.67
2018-12-12T05:21:26.654Z,3.47
2018-12-12T05:23:55.288Z,3.97
2018-12-12T05:26:23.951Z,2.87
2018-12-12T05:28:52.559Z,7.17
2018-12-12T05:31:21.202Z,3.77
2018-12-12T05:33:49.863Z,3.20
2018-12-12T05:36:18.738Z,3.57
2018-12-12T05:38:47.369Z,3.73
2018-12-12T05:41:16.001Z,2.90
2018-12-12T05:43:44.614Z,2.50
2018-12-12T05:46:13.242Z,4.17
2018-12-12T05:48:41.911Z,2.87
2018-12-12T05:51:10.531Z,3.17
2018-12-12T05:53:39.157Z,2.83
2018-12-12T05:56:13.928Z,2.87
2018-12-12T05:58:38.561Z,2.13
2018-12-12T06:01:07.222Z,3.67
2018-12-12T06:03:35.843Z,4.60
2018-12-12T06:06:04.466Z,4.50
2018-12-12T06:08:33.099Z,7.63
2018-12-12T06:11:01.738Z,7.20
2018-12-12T06:13:30.357Z,8.10
2018-12-12T06:15:58.999Z,4.07
2018-12-12T06:18:27.785Z,8.73
2018-12-12T06:20:56.394Z,7.80
2018-12-12T06:23:25.004Z,8.70
2018-12-12T06:25:55.252Z,10.17
2018-12-12T06:28:24.014Z,3.13
2018-12-12T06:30:55.049Z,4.20
2018-12-12T06:33:23.680Z,6.87
2018-12-12T06:35:52.724Z,3.80
2018-12-12T06:38:21.469Z,10.10
2018-12-12T06:40:50.481Z,3.47
2018-12-12T06:43:19.343Z,5.27
2018-12-12T06:45:48.070Z,4.33
2018-12-12T06:48:16.724Z,6.47
2018-12-12T06:50:45.340Z,7.20
2018-12-12T06:53:13.969Z,6.80
2018-12-12T06:55:42.624Z,9.47
2018-12-12T06:58:11.241Z,9.37
2018-12-12T07:00:39.866Z,7.87
2018-12-12T07:03:08.533Z,5.73
2018-12-12T07:05:37.199Z,5.70
2018-12-12T07:08:05.884Z,6.80
2018-12-12T07:10:34.546Z,5.33
2018-12-12T07:13:03.193Z,6.90
2018-12-12T07:15:31.845Z,8.10
2018-12-12T07:18:00.458Z,6.10
2018-12-12T07:20:29.112Z,5.87
2018-12-12T07:22:57.810Z,7.00
2018-12-12T07:25:26.481Z,7.33
2018-12-12T07:27:55.111Z,6.10
2018-12-12T07:30:23.750Z,5.63
2018-12-12T07:32:52.410Z,5.70
2018-12-12T07:35:21.909Z,7.70
2018-12-12T07:37:50.610Z,8.50
2018-12-12T07:40:19.234Z,11.10
2018-12-12T07:42:47.876Z,18.03
2018-12-12T07:45:16.716Z,23.13
2018-12-12T07:47:45.442Z,25.13
2018-12-12T07:50:14.073Z,20.37
2018-12-12T07:52:42.737Z,14.00
2018-12-12T07:55:11.430Z,13.30
2018-12-12T07:57:40.070Z,17.03
2018-12-12T08:00:09.139Z,17.07
2018-12-12T08:02:37.793Z,15.30
2018-12-12T08:05:06.402Z,14.17
2018-12-12T08:07:35.009Z,13.17
2018-12-12T08:10:04.077Z,13.87
2018-12-12T08:12:33.706Z,13.80
2018-12-12T08:15:02.869Z,17.80
2018-12-12T08:17:31.977Z,17.50
2018-12-12T08:20:00.641Z,17.27
2018-12-12T08:22:29.290Z,19.10
2018-12-12T08:24:57.941Z,22.07
2018-12-12T08:27:26.581Z,24.73
2018-12-12T08:29:55.322Z,28.87
2018-12-12T08:32:23.942Z,28.30
2018-12-12T08:34:52.742Z,23.03
2018-12-12T08:37:21.397Z,20.63
2018-12-12T08:39:50.101Z,25.93
2018-12-12T08:42:18.722Z,25.20
2018-12-12T08:44:47.653Z,21.73
2018-12-12T08:47:16.297Z,24.60
2018-12-12T08:49:44.970Z,18.80
2018-12-12T08:52:15.434Z,16.67
2018-12-12T08:54:44.211Z,21.80
2018-12-12T08:57:12.990Z,16.70
2018-12-12T08:59:41.805Z,21.83
2018-12-12T09:02:10.416Z,18.80
2018-12-12T09:04:39.030Z,23.43
2018-12-12T09:07:07.642Z,18.03
2018-12-12T09:09:36.861Z,17.83
2018-12-12T09:12:05.710Z,17.67
2018-12-12T09:15:04.770Z,16.30
2018-12-12T09:17:33.506Z,16.83
2018-12-12T09:20:02.431Z,15.03
2018-12-12T09:22:31.113Z,18.33
2018-12-12T09:24:59.743Z,23.17
2018-12-12T09:27:28.485Z,20.83
2018-12-12T09:29:57.261Z,17.50
2018-12-12T09:32:26.534Z,19.00
2018-12-12T09:34:55.201Z,18.13
2018-12-12T09:37:23.811Z,18.37
2018-12-12T09:39:52.498Z,14.50
2018-12-12T09:42:21.133Z,17.13
2018-12-12T09:44:49.766Z,13.77
2018-12-12T09:47:18.541Z,17.00
2018-12-12T09:49:47.261Z,16.70
2018-12-12T09:52:16.113Z,14.97
2018-12-12T09:54:44.709Z,18.17
2018-12-12T09:57:13.351Z,17.00
2018-12-12T09:59:42.079Z,19.23
2018-12-12T10:02:10.678Z,15.37
2018-12-12T10:04:39.268Z,14.80
2018-12-12T10:07:07.874Z,16.83
2018-12-12T10:09:36.516Z,15.93
2018-12-12T10:12:05.169Z,17.33
2018-12-12T10:14:34.834Z,9.13
2018-12-12T10:17:03.929Z,7.30
2018-12-12T10:19:32.677Z,9.87
2018-12-12T10:22:01.660Z,9.90
2018-12-12T10:24:30.530Z,10.73
2018-12-12T10:26:59.171Z,9.87
2018-12-12T10:29:28.583Z,10.63
2018-12-12T10:31:57.197Z,10.80
2018-12-12T10:34:25.817Z,12.87
2018-12-12T10:36:54.461Z,11.53
2018-12-12T10:39:23.124Z,12.53
2018-12-12T10:41:51.839Z,14.83
2018-12-12T10:44:20.468Z,10.03
2018-12-12T10:46:49.062Z,9.47
2018-12-12T10:49:17.682Z,12.57
2018-12-12T10:51:46.438Z,10.77
2018-12-12T10:54:15.141Z,10.03
2018-12-12T10:56:43.756Z,9.50
2018-12-12T10:59:12.429Z,11.30
2018-12-12T11:01:47.383Z,14.37
2018-12-12T11:04:17.689Z,19.67
2018-12-12T11:06:46.315Z,13.90
2018-12-12T11:09:14.945Z,10.17
2018-12-12T11:11:45.620Z,9.53
2018-12-12T11:14:14.281Z,9.53
2018-12-12T11:16:42.952Z,13.90
2018-12-12T11:19:11.573Z,11.63
2018-12-12T11:21:40.277Z,12.77
2018-12-12T11:24:08.918Z,12.17
2018-12-12T11:26:37.527Z,9.07
2018-12-12T11:29:06.717Z,12.13
2018-12-12T11:31:35.356Z,10.13
2018-12-12T11:34:03.989Z,9.63
2018-12-12T11:36:33.694Z,12.57
2018-12-12T11:39:02.389Z,9.30
2018-12-12T11:41:31.209Z,13.53
2018-12-12T11:43:59.929Z,13.10
2018-12-12T11:46:28.563Z,10.67
2018-12-12T11:48:57.287Z,8.87
2018-12-12T11:51:25.938Z,11.17
2018-12-12T11:53:54.509Z,10.90
2018-12-12T11:56:23.280Z,10.93
2018-12-12T11:58:51.914Z,11.83
2018-12-12T12:01:23.174Z,10.07
2018-12-12T12:03:56.709Z,9.83
2018-12-12T12:06:22.710Z,10.17
2018-12-12T12:08:51.321Z,10.60
2018-12-12T12:11:20.374Z,9.53
2018-12-12T12:13:49.093Z,10.97
2018-12-12T12:16:17.761Z,9.83
2018-12-12T12:18:46.395Z,8.33
2018-12-12T12:21:15.138Z,7.63
2018-12-12T12:23:43.814Z,6.87
2018-12-12T12:26:14.651Z,7.67
2018-12-12T12:28:43.282Z,9.80
2018-12-12T12:31:11.916Z,9.07
2018-12-12T12:33:41.520Z,8.73
2018-12-12T12:36:10.303Z,7.33
2018-12-12T12:38:40.120Z,8.17
2018-12-12T12:41:08.822Z,8.97
2018-12-12T12:43:37.504Z,9.17
2018-12-12T12:46:06.513Z,7.43
2018-12-12T12:48:35.179Z,7.10
2018-12-12T12:51:03.846Z,8.67
2018-12-12T12:53:32.530Z,6.67
2018-12-12T12:56:01.202Z,8.50
2018-12-12T12:58:29.854Z,6.30
2018-12-12T13:00:58.649Z,7.27
2018-12-12T13:03:27.354Z,8.83
2018-12-12T13:05:56.069Z,7.60
2018-12-12T13:08:25.100Z,7.47
2018-12-12T13:10:54.082Z,7.13
2018-12-12T13:13:23.280Z,6.63
2018-12-12T13:15:52.472Z,6.00
2018-12-12T13:18:22.195Z,7.87
2018-12-12T13:20:51.319Z,8.90
2018-12-12T13:23:20.079Z,7.20
2018-12-12T13:25:49.228Z,6.83
2018-12-12T13:28:18.606Z,6.60
2018-12-12T13:30:47.765Z,6.43
2018-12-12T13:33:20.393Z,7.17
2018-12-12T13:35:49.477Z,6.20
2018-12-12T13:38:18.615Z,7.07
2018-12-12T13:40:47.363Z,6.80
2018-12-12T13:43:17.455Z,7.17
2018-12-12T13:45:46.570Z,11.83
2018-12-12T13:48:15.249Z,8.47
2018-12-12T13:50:43.884Z,9.20
2018-12-12T13:53:12.586Z,10.70
2018-12-12T13:55:42.140Z,10.73
2018-12-12T13:58:10.818Z,9.63
2018-12-12T14:00:39.473Z,8.63
2018-12-12T14:03:09.681Z,8.43
2018-12-12T14:05:38.379Z,6.37
2018-12-12T14:08:07.037Z,7.03
2018-12-12T14:10:35.686Z,7.30
2018-12-12T14:13:05.343Z,5.70
2018-12-12T14:15:34.515Z,6.03
2018-12-12T14:18:03.749Z,9.53
2018-12-12T14:20:33.292Z,8.30
2018-12-12T14:23:02.572Z,7.27
2018-12-12T14:25:31.248Z,7.03
2018-12-12T14:27:59.883Z,8.77
2018-12-12T14:30:28.517Z,5.40
2018-12-12T14:32:57.166Z,8.07
2018-12-12T14:35:27.689Z,5.57
2018-12-12T14:37:56.318Z,7.27
2018-12-12T14:40:24.967Z,7.17
2018-12-12T14:42:53.604Z,6.23
2018-12-12T14:45:22.218Z,8.57
2018-12-12T14:47:50.884Z,6.60
2018-12-12T14:50:19.529Z,8.03
2018-12-12T14:52:48.237Z,5.60
2018-12-12T14:55:17.698Z,6.30
2018-12-12T14:57:46.362Z,7.07
2018-12-12T15:00:15.207Z,6.30
2018-12-12T15:02:43.938Z,7.10
2018-12-12T15:05:13.098Z,5.27
2018-12-12T15:07:41.808Z,5.37
2018-12-12T15:10:10.514Z,5.03
2018-12-12T15:12:40.473Z,5.47
2018-12-12T15:15:09.118Z,5.17
2018-12-12T15:17:37.746Z,5.27
2018-12-12T15:20:06.430Z,5.63
2018-12-12T15:22:35.099Z,7.90
2018-12-12T15:25:03.789Z,5.90
2018-12-12T15:27:32.429Z,4.67
2018-12-12T15:30:01.061Z,5.87
2018-12-12T15:32:29.761Z,4.27
2018-12-12T15:34:58.406Z,7.30
2018-12-12T15:37:27.095Z,5.00
2018-12-12T15:39:55.749Z,5.77
2018-12-12T15:42:24.385Z,5.30
2018-12-12T15:44:53.039Z,4.40
2018-12-12T15:47:21.345Z,4.90
2018-12-12T15:49:50.097Z,4.93
2018-12-12T15:52:18.757Z,4.03
2018-12-12T15:54:47.419Z,5.50
2018-12-12T15:57:16.066Z,4.27
2018-12-12T15:59:44.998Z,3.93
2018-12-12T16:02:13.689Z,4.63
2018-12-12T16:04:48.807Z,5.23
2018-12-12T16:07:13.107Z,5.70
2018-12-12T16:09:42.490Z,7.87
2018-12-12T16:12:11.141Z,4.57
2018-12-12T16:14:39.773Z,5.17
2018-12-12T16:17:08.445Z,4.17
2018-12-12T16:19:37.080Z,4.00
2018-12-12T16:22:05.786Z,4.37
2018-12-12T16:24:34.410Z,4.10
2018-12-12T16:27:03.089Z,3.87
2018-12-12T16:29:31.718Z,3.27
2018-12-12T16:32:00.325Z,3.63
2018-12-12T16:34:28.962Z,3.60
2018-12-12T16:36:57.569Z,7.23
2018-12-12T16:39:26.402Z,4.97
2018-12-12T16:41:55.517Z,4.97
2018-12-12T16:44:24.297Z,3.27
2018-12-12T16:46:53.229Z,3.87
2018-12-12T16:49:21.913Z,4.60
2018-12-12T16:51:50.649Z,5.40
2018-12-12T16:54:19.249Z,4.23
2018-12-12T16:56:47.916Z,4.07
2018-12-12T16:59:17.110Z,4.17
2018-12-12T17:01:45.733Z,3.00
2018-12-12T17:04:14.398Z,3.27
2018-12-12T17:06:42.990Z,4.97
2018-12-12T17:09:11.646Z,3.93
2018-12-12T17:11:40.249Z,3.47
2018-12-12T17:14:09.644Z,3.37
2018-12-12T17:16:38.242Z,2.37
2018-12-12T17:19:06.993Z,3.97
2018-12-12T17:21:35.619Z,4.27
2018-12-12T17:24:05.002Z,2.67
2018-12-12T17:26:34.565Z,2.83
2018-12-12T17:29:03.597Z,3.67
2018-12-12T17:31:32.314Z,3.00
2018-12-12T17:34:00.912Z,2.93
2018-12-12T17:36:29.522Z,3.17
2018-12-12T17:38:58.192Z,4.80
2018-12-12T17:41:26.868Z,2.47
2018-12-12T17:43:55.460Z,3.23
2018-12-12T17:46:24.096Z,2.90
2018-12-12T17:48:52.971Z,3.17
2018-12-12T17:51:21.621Z,3.77
2018-12-12T17:53:50.260Z,2.90
2018-12-12T17:56:18.846Z,2.90
2018-12-12T17:58:47.501Z,2.63
2018-12-12T18:01:16.171Z,3.40
2018-12-12T18:03:45.221Z,3.13
2018-12-12T18:06:13.847Z,3.20
2018-12-12T18:08:42.547Z,2.90
2018-12-12T18:11:11.237Z,2.90
2018-12-12T18:13:39.854Z,5.90
2018-12-12T18:16:08.483Z,4.73
2018-12-12T18:18:37.126Z,3.33
2018-12-12T18:21:05.800Z,3.93
2018-12-12T18:23:34.433Z,6.07
2018-12-12T18:26:03.063Z,6.83
2018-12-12T18:28:31.669Z,5.27
2018-12-12T18:31:00.593Z,4.37
2018-12-12T18:33:29.271Z,6.40
2018-12-12T18:35:57.886Z,4.97
2018-12-12T18:38:26.536Z,3.90
2018-12-12T18:40:55.195Z,5.37
2018-12-12T18:43:23.815Z,6.77
2018-12-12T18:45:52.454Z,10.93
2018-12-12T18:48:21.190Z,5.60
2018-12-12T18:50:50.342Z,4.90
2018-12-12T18:53:19.673Z,4.87
2018-12-12T18:55:48.630Z,5.50
2018-12-12T18:58:17.577Z,3.90
2018-12-12T19:00:46.241Z,3.73
2018-12-12T19:03:15.381Z,5.83
2018-12-12T19:05:44.207Z,5.10
2018-12-12T19:08:13.386Z,5.67
2018-12-12T19:10:42.275Z,6.53
2018-12-12T19:13:11.210Z,4.87
2018-12-12T19:15:39.909Z,7.40
2018-12-12T19:18:08.618Z,7.17
2018-12-12T19:20:37.322Z,8.37
2018-12-12T19:23:06.453Z,19.07
2018-12-12T19:25:35.816Z,22.73
2018-12-12T19:28:06.701Z,32.90
2018-12-12T19:30:36.599Z,28.00
2018-12-12T19:33:06.635Z,25.77
2018-12-12T19:35:35.983Z,24.03
2018-12-12T19:38:04.636Z,22.93
2018-12-12T19:40:33.289Z,22.10
2018-12-12T19:43:02.042Z,22.73
2018-12-12T19:45:32.498Z,23.40
2018-12-12T19:48:01.457Z,27.73
2018-12-12T19:50:30.875Z,24.93
2018-12-12T19:53:00.363Z,23.10
2018-12-12T19:55:30.034Z,28.00
2018-12-12T19:58:02.398Z,29.10
2018-12-12T20:00:31.111Z,28.30
2018-12-12T20:03:00.579Z,25.70
2018-12-12T20:05:29.859Z,27.50
2018-12-12T20:07:59.105Z,31.30
2018-12-12T20:10:30.378Z,27.17
2018-12-12T20:12:59.631Z,25.90
2018-12-12T20:15:33.754Z,29.23
2018-12-12T20:18:03.079Z,28.33
2018-12-12T20:20:31.970Z,31.13
2018-12-12T20:23:00.582Z,23.87
2018-12-12T20:34:33.737Z,30.17
2018-12-12T20:37:03.660Z,28.20
2018-12-12T20:39:32.345Z,24.33
2018-12-12T20:42:01.101Z,24.63
2018-12-12T20:44:29.832Z,28.03
2018-12-12T20:46:59.212Z,22.37
2018-12-12T20:49:28.594Z,25.47
2018-12-12T20:51:58.222Z,21.60
2018-12-12T20:54:27.746Z,24.10
2018-12-12T20:56:56.423Z,24.63
2018-12-12T20:59:25.068Z,24.27
2018-12-12T21:01:53.773Z,22.03
2018-12-12T21:04:22.389Z,36.10
2018-12-12T21:06:51.022Z,30.87
2018-12-12T21:09:19.698Z,17.40
2018-12-12T21:11:48.314Z,14.13
2018-12-12T21:14:16.992Z,15.90
2018-12-12T21:16:45.910Z,14.17
2018-12-12T21:19:14.833Z,11.87
2018-12-12T21:21:43.501Z,12.90
2018-12-12T21:24:12.152Z,15.03
2018-12-12T21:26:40.763Z,15.00
2018-12-12T21:29:09.407Z,15.53
2018-12-12T21:31:38.056Z,14.83
2018-12-12T21:34:06.714Z,15.33
2018-12-12T21:36:35.378Z,16.20
2018-12-12T21:39:05.214Z,22.33
2018-12-12T21:41:33.878Z,23.73
2018-12-12T21:44:02.549Z,24.57
2018-12-12T21:46:31.190Z,25.97
2018-12-12T21:48:59.850Z,21.57
2018-12-12T21:51:28.829Z,34.00
2018-12-12T21:53:57.484Z,25.27
2018-12-12T21:56:26.130Z,23.17
2018-12-12T21:58:54.816Z,22.87
2018-12-12T22:01:24.693Z,21.33
2018-12-12T22:03:54.998Z,22.90
2018-12-12T22:06:23.748Z,25.07
2018-12-12T22:08:52.446Z,21.70
2018-12-12T22:11:21.135Z,18.23
2018-12-12T22:13:49.789Z,22.27
2018-12-12T22:16:21.375Z,22.27
2018-12-12T22:18:49.983Z,20.50
2018-12-12T22:21:18.620Z,21.63
2018-12-12T22:23:47.465Z,21.23
2018-12-12T22:26:16.765Z,23.07
2018-12-12T22:28:46.421Z,21.40
2018-12-12T22:31:15.312Z,21.67
2018-12-12T22:33:47.098Z,23.10
2018-12-12T22:36:16.707Z,20.47
2018-12-12T22:38:46.076Z,18.97
2018-12-12T22:41:16.427Z,22.23
2018-12-12T22:43:45.216Z,18.83
2018-12-12T22:46:15.697Z,21.13
2018-12-12T22:48:44.869Z,18.80
2018-12-12T22:51:14.211Z,17.60
2018-12-12T22:53:43.199Z,18.87
2018-12-12T22:56:12.753Z,19.77
2018-12-12T22:58:41.582Z,16.90
2018-12-12T23:01:10.627Z,17.30
2018-12-12T23:03:42.350Z,18.33
2018-12-12T23:06:11.162Z,19.23
2018-12-12T23:08:40.477Z,16.23
2018-12-12T23:11:10.822Z,16.83
2018-12-12T23:13:39.634Z,18.47
2018-12-12T23:16:08.369Z,19.63
2018-12-12T23:18:40.386Z,15.37
2018-12-12T23:21:11.923Z,14.70
2018-12-12T23:23:41.227Z,15.57
2018-12-12T23:26:10.995Z,15.23
2018-12-12T23:28:39.742Z,15.23
2018-12-12T23:31:08.811Z,15.00
2018-12-12T23:33:37.670Z,13.83
2018-12-12T23:36:10.730Z,16.90
2018-12-12T23:38:41.276Z,18.53
2018-12-12T23:41:11.026Z,14.53
2018-12-12T23:43:40.060Z,13.27
2018-12-12T23:46:11.209Z,14.67
2018-12-12T23:48:41.197Z,15.73
2018-12-12T23:51:09.927Z,13.03
2018-12-12T23:53:39.311Z,14.57
2018-12-12T23:56:09.277Z,15.17
2018-12-12T23:58:40.141Z,14.90
